Latest Weather Observations for Southern Cross Airport

IDW60801

Issued at 11:03 pm WST Saturday 23 January 2021 (issued every 10 minutes, with the page automatically refreshed every 10 minutes)

About weather observations | Map of weather stations | Latest weather observations for WA | Other Formats
Station Details ID: 012320 Name: SOUTHERN CROSS AIRFIELD Lat: -31.24 Lon: 119.36 Height: 347.4 m
Data from the previous 72 hours. | See also: Recent months at Southern Cross Airport
Date/Time
WST
Temp
°C
App
Temp
°C
Dew
Point
°C
Rel
Hum
%
Delta-T
°C
Wind Press
QNH
hPa
Press
MSL
hPa
Rain since
9am
mm
Dir  Spd
km/h
Gust
km/h
Spd
kts
Gust
kts
23/11:00pm 24.6 21.9 15.5 57 5.6 SSE 24 32 13 17 1003.0 1000.8 0.0
23/10:30pm 25.4 21.7 16.0 56 5.8 S 30 39 16 21 1002.9 1000.7 0.0
23/10:00pm 27.8 23.8 15.1 46 7.9 SSE 30 37 16 20 1002.5 1000.3 0.0
23/09:30pm 30.2 24.3 13.5 36 10.1 S 37 48 20 26 1001.7 999.6 0.0
23/09:24pm 31.4 24.7 12.2 30 11.5 SW 39 50 21 27 1001.6 999.5 0.0
23/09:00pm 32.9 25.1 8.4 22 14.0 SW 39 54 21 29 1001.2 999.0 0.0
23/08:51pm 33.2 26.2 8.6 22 14.0 SW 35 54 19 29 1001.0 998.8 0.0
23/08:30pm 33.9 27.7 7.8 20 14.7 SW 30 41 16 22 1000.6 998.4 0.0
23/08:00pm 35.0 30.0 4.5 15 16.5 WSW 20 28 11 15 1000.0 997.8 0.0
23/07:30pm 35.4 30.5 3.9 14 16.8 WSW 19 24 10 13 999.6 997.4 0.0
23/07:00pm 36.6 29.9 3.7 13 17.8 WSW 28 35 15 19 999.2 997.1 0.0
23/06:30pm 37.6 31.1 4.5 13 18.1 WSW 28 33 15 18 998.8 996.7 0.0
23/06:00pm 38.7 34.5 8.4 16 17.7 W 20 30 11 16 998.3 996.1 0.0
23/05:30pm 39.1 34.4 7.7 15 18.1 WNW 22 37 12 20 997.9 995.7 0.0
23/05:00pm 39.4 33.0 7.0 14 18.6 W 30 41 16 22 997.7 995.5 0.0
23/04:30pm 40.1 33.0 5.3 12 19.5 WNW 32 46 17 25 997.6 995.4 0.0
23/04:00pm 40.5 34.4 6.7 13 19.4 WNW 28 44 15 24 997.8 995.6 0.0
23/03:30pm 40.6 35.2 7.9 14 19.0 NW 26 41 14 22 998.1 995.9 0.0
23/03:00pm 39.6 34.1 9.1 16 18.1 NW 28 43 15 23 998.3 996.1 0.0
23/02:30pm 38.5 35.0 10.8 19 16.7 NW 20 32 11 17 998.6 996.4 0.0
23/02:00pm 39.0 34.2 10.4 18 17.2 NNW 26 35 14 19 999.0 996.9 0.0
23/01:30pm 37.8 33.4 11.7 21 15.9 N 26 37 14 20 999.3 997.2 0.0
23/01:00pm 38.8 34.6 11.0 19 16.9 NNW 24 46 13 25 999.7 997.5 0.0
23/12:51pm 38.4 33.3 10.7 19 16.6 NNW 28 46 15 25 999.9 997.7 0.0
23/12:30pm 38.1 32.8 11.2 20 16.3 NW 30 43 16 23 1000.0 997.8 0.0
23/12:00pm 36.8 32.6 12.3 23 15.0 NNW 26 41 14 22 1000.4 998.2 0.0
23/11:30am 37.6 33.2 12.9 23 15.3 NNW 28 41 15 22 1001.0 998.8 0.0
23/11:00am 36.3 32.2 13.7 25 14.1 NNW 28 46 15 25 1001.4 999.3 0.0
23/10:55am 36.0 31.4 13.5 26 13.9 NNW 30 46 16 25 1001.5 999.4 0.0
23/10:38am 36.2 32.0 13.6 25 14.0 NNW 28 46 15 25 1001.6 999.5 0.0
23/10:30am 35.0 30.3 13.2 27 13.4 NNW 30 43 16 23 1001.7 999.6 0.0
23/10:00am 34.6 29.6 14.0 29 12.8 N 33 46 18 25 1002.1 1000.0 0.0
23/09:30am 33.5 29.2 14.5 31 11.8 N 30 41 16 22 1002.3 1000.2 0.0
23/09:00am 32.7 28.6 14.8 34 11.2 N 30 41 16 22 1002.5 1000.3 0.0
23/08:30am 31.0 27.8 15.4 38 9.8 N 26 33 14 18 1002.7 1000.5 0.0
23/08:00am 29.7 26.7 15.8 43 8.7 N 26 37 14 20 1002.9 1000.7 0.0
23/07:30am 28.4 26.0 16.3 47 7.6 N 24 32 13 17 1003.0 1000.8 0.0
23/07:00am 27.5 25.1 16.5 51 6.9 NNE 24 32 13 17 1002.9 1000.7 0.0
23/06:30am 26.7 24.6 16.3 53 6.5 NNE 22 32 12 17 1002.9 1000.7 0.0
23/06:00am 26.0 24.8 16.0 54 6.2 NNE 17 22 9 12 1002.8 1000.6 0.0
23/05:30am 25.6 24.2 15.6 54 6.2 NNE 17 22 9 12 1002.6 1000.4 0.0
23/05:00am 26.1 24.3 15.5 52 6.6 NNE 19 26 10 14 1002.3 1000.2 0.0
23/04:30am 26.4 23.9 15.1 49 6.9 NNE 22 32 12 17 1002.2 1000.1 0.0
23/04:00am 26.9 24.0 15.0 48 7.3 NNE 24 33 13 18 1002.0 999.9 0.0
23/03:30am 27.6 23.8 14.6 45 7.9 NNE 28 43 15 23 1001.8 999.7 0.0
23/03:00am 28.6 25.2 13.7 40 9.0 NNE 24 32 13 17 1001.9 999.8 0.0
23/02:30am 28.5 26.5 14.0 41 8.8 NNE 17 24 9 13 1002.1 1000.0 0.0
23/02:00am 28.5 27.3 14.0 41 8.8 NNE 13 19 7 10 1001.9 999.8 0.0
23/01:30am 28.5 27.7 14.0 41 8.8 NNE 11 15 6 8 1002.2 1000.1 0.0
23/01:00am 28.0 27.2 13.9 42 8.6 NE 11 15 6 8 1002.3 1000.2 0.0
23/12:30am 28.9 28.0 13.6 39 9.2 NE 11 17 6 9 1002.8 1000.6 0.0
23/12:00am 29.2 27.2 13.8 39 9.4 NNE 17 20 9 11 1003.2 1001.0 0.0
 
Date/Time
WST
Temp
°C
App
Temp
°C
Dew
Point
°C
Rel
Hum
%
Delta-T
°C
Wind Press
QNH
hPa
Press
MSL
hPa
Rain since
9am
mm
Dir  Spd
km/h
Gust
km/h
Spd
kts
Gust
kts
22/11:30pm 29.7 27.3 14.3 39 9.4 NE 20 28 11 15 1003.3 1001.1 0.0
22/11:00pm 29.7 27.4 14.7 40 9.3 NE 20 32 11 17 1003.9 1001.8 0.0
22/10:30pm 30.2 28.9 14.7 39 9.6 ENE 15 24 8 13 1004.1 1002.0 0.0
22/10:00pm 31.0 30.1 13.7 34 10.6 NNE 11 17 6 9 1003.8 1001.6 0.0
22/09:30pm 30.5 30.7 14.2 37 10.0 N 6 9 3 5 1003.7 1001.5 0.0
22/09:00pm 30.3 28.8 15.2 40 9.4 NNE 17 28 9 15 1003.9 1001.8 0.0
22/08:30pm 30.6 26.8 14.7 38 9.8 N 28 37 15 20 1003.5 1001.3 0.0
22/08:00pm 32.8 26.7 11.9 28 12.6 NE 35 76 19 41 1002.6 1000.4 0.0
22/07:55pm 33.3 29.3 11.8 27 12.9 ESE 24 76 13 41 1002.2 1000.1 0.0
22/07:54pm 33.9 30.5 11.1 25 13.5 SE 20 76 11 41 1002.0 999.9 0.0
22/07:52pm 35.2 32.3 9.6 21 14.9 SSE 15 46 8 25 1002.1 1000.0 0.0
22/07:30pm 36.8 32.2 3.9 13 17.7 WSW 17 22 9 12 1001.0 998.8 0.0
22/07:00pm 37.3 31.9 4.3 13 18.0 WSW 22 28 12 15 1000.7 998.5 0.0
22/06:30pm 38.5 33.0 4.1 12 18.8 SW 22 28 12 15 1000.4 998.2 0.0
22/06:00pm 39.7 35.0 5.0 12 19.4 WSW 19 24 10 13 1000.0 997.8 0.0
22/05:30pm 40.4 35.3 4.3 11 19.9 WSW 20 32 11 17 999.8 997.6 0.0
22/05:00pm 40.3 35.2 4.2 11 20.0 WSW 20 30 11 16 999.8 997.6 0.0
22/04:30pm 40.6 35.9 3.1 10 20.4 WSW 17 26 9 14 1000.0 997.8 0.0
22/04:00pm 40.1 36.2 5.3 12 19.6 S 15 26 8 14 1000.3 998.1 0.0
22/03:30pm 39.7 35.7 5.0 12 19.3 WNW 15 24 8 13 1000.7 998.5 0.0
22/03:00pm 40.0 36.4 5.2 12 19.5 SSW 13 24 7 13 1001.3 999.1 0.0
22/02:30pm 39.1 36.0 5.7 13 18.7 ESE 11 20 6 11 1002.0 999.9 0.0
22/02:00pm 39.4 37.4 7.0 14 18.6 WNW 7 19 4 10 1002.7 1000.5 0.0
22/01:30pm 38.0 35.2 8.7 17 17.1 W 13 22 7 12 1003.3 1001.1 0.0
22/01:00pm 37.0 34.9 9.6 19 16.2 NNW 11 24 6 13 1003.9 1001.8 0.0
22/12:30pm 36.7 34.7 10.1 20 15.7 N 11 24 6 13 1004.6 1002.5 0.0
22/12:00pm 35.8 32.6 10.1 21 15.2 N 17 28 9 15 1005.1 1003.0 0.0
22/11:30am 33.8 31.1 10.4 24 13.7 NE 15 26 8 14 1005.6 1003.4 0.0
22/11:00am 32.1 28.4 10.2 26 12.8 NNE 20 30 11 16 1006.2 1004.0 0.0
22/10:30am 31.0 27.7 10.9 29 11.8 NE 19 30 10 16 1006.7 1004.6 0.0
22/10:00am 29.7 26.2 10.8 31 11.0 NE 20 33 11 18 1007.1 1005.0 0.0
22/09:30am 28.9 25.5 10.6 32 10.5 E 19 28 10 15 1007.3 1005.2 0.0
22/09:00am 26.8 23.5 10.9 37 9.1 E 19 24 10 13 1007.4 1005.3 0.0
22/08:30am 24.7 21.6 11.6 44 7.5 E 19 26 10 14 1007.6 1005.5 0.0
22/08:00am 23.3 20.3 12.0 49 6.5 ESE 19 26 10 14 1007.8 1005.7 0.0
22/07:30am 21.8 19.2 12.1 54 5.5 ESE 17 28 9 15 1008.0 1005.9 0.0
22/07:00am 20.1 17.0 12.1 60 4.5 ESE 20 26 11 14 1008.2 1006.1 0.0
22/06:30am 18.9 15.8 12.2 65 3.8 ESE 20 28 11 15 1007.9 1005.8 0.0
22/06:00am 18.1 15.6 12.3 69 3.3 ESE 17 24 9 13 1008.0 1005.9 0.0
22/05:30am 17.7 14.8 12.2 70 3.1 SE 19 26 10 14 1007.9 1005.8 0.0
22/05:00am 17.8 14.7 12.3 70 3.1 SE 20 26 11 14 1007.8 1005.7 0.0
22/04:30am 18.0 14.5 12.2 69 3.3 SE 22 28 12 15 1007.7 1005.6 0.0
22/04:00am 18.5 14.7 12.3 67 3.5 SE 24 32 13 17 1007.3 1005.2 0.0
22/03:30am 18.8 15.0 12.3 66 3.7 SE 24 32 13 17 1007.8 1005.7 0.0
22/03:00am 19.2 14.9 12.2 64 4.0 SE 26 33 14 18 1008.0 1005.9 0.0
22/02:30am 19.6 16.0 11.9 61 4.3 SE 22 33 12 18 1008.3 1006.2 0.0
22/02:00am 20.1 16.9 11.8 59 4.7 SE 20 28 11 15 1008.8 1006.6 0.0
22/01:30am 21.0 16.9 11.6 55 5.3 SE 24 32 13 17 1008.8 1006.6 0.0
22/01:00am 21.6 17.5 11.6 53 5.7 SE 24 30 13 16 1009.0 1006.8 0.0
22/12:30am 22.1 17.5 11.2 50 6.1 SE 26 37 14 20 1009.3 1007.2 0.0
22/12:00am 23.0 19.0 11.7 49 6.5 SE 24 32 13 17 1009.2 1007.1 0.0
 
Date/Time
WST
Temp
°C
App
Temp
°C
Dew
Point
°C
Rel
Hum
%
Delta-T
°C
Wind Press
QNH
hPa
Press
MSL
hPa
Rain since
9am
mm
Dir  Spd
km/h
Gust
km/h
Spd
kts
Gust
kts
21/11:30pm 23.8 18.2 11.5 46 7.0 SE 32 43 17 23 1009.4 1007.3 0.0
21/11:00pm 24.2 18.1 11.9 46 7.1 SE 35 44 19 24 1009.3 1007.2 0.0
21/10:30pm 25.1 19.3 12.7 46 7.3 SE 35 46 19 25 1009.2 1007.1 0.0
21/10:00pm 25.9 18.6 12.7 44 7.8 SE 43 50 23 27 1009.1 1007.0 0.0
21/09:30pm 27.4 20.7 12.2 39 8.9 SE 39 54 21 29 1008.8 1006.6 0.0
21/09:10pm 28.3 21.1 11.8 36 9.7 SE 41 61 22 33 1008.4 1006.3 0.0
21/09:00pm 28.7 21.6 12.2 36 9.8 SE 41 54 22 29 1008.3 1006.2 0.0
21/08:30pm 30.2 24.8 12.1 32 10.7 SE 32 39 17 21 1007.8 1005.7 0.0
21/08:00pm 31.5 25.0 11.8 30 11.7 SE 37 52 20 28 1007.3 1005.2 0.0
21/07:30pm 32.6 24.8 11.2 27 12.7 SE 43 52 23 28 1007.0 1004.9 0.0
21/07:00pm 34.5 28.2 9.7 22 14.5 SSE 33 46 18 25 1006.6 1004.5 0.0
21/06:30pm 35.8 30.0 9.3 20 15.4 SE 30 37 16 20 1006.2 1004.0 0.0
21/06:00pm 36.8 32.3 8.6 18 16.4 SE 22 33 12 18 1006.0 1003.8 0.0
21/05:30pm 37.7 32.6 7.6 16 17.2 SE 24 35 13 19 1005.8 1003.6 0.0
21/05:00pm 37.8 33.1 7.7 16 17.3 S 22 33 12 18 1005.7 1003.5 0.0
21/04:30pm 38.3 34.4 7.1 15 17.8 SSE 17 28 9 15 1006.0 1003.8 0.0
21/04:00pm 37.5 33.1 7.4 16 17.2 SSE 20 30 11 16 1006.2 1004.0 0.0
21/03:30pm 37.3 33.4 7.3 16 17.1 SSE 17 32 9 17 1006.5 1004.4 0.0
21/03:00pm 37.3 34.4 8.2 17 16.8 E 13 28 7 15 1006.9 1004.8 0.0
21/02:30pm 37.6 33.4 7.5 16 17.2 SW 19 28 10 15 1007.1 1005.0 0.0
21/02:00pm 36.6 33.2 7.6 17 16.6 SSE 15 28 8 15 1007.6 1005.5 0.0
21/01:30pm 36.4 32.4 8.3 18 16.2 SE 19 33 10 18 1007.9 1005.8 0.0
21/01:00pm 36.4 32.6 9.8 20 15.7 SSE 20 32 11 17 1008.2 1006.1 0.0
21/12:30pm 35.1 32.7 10.2 22 14.7 SE 13 20 7 11 1008.6 1006.4 0.0
21/12:00pm 34.7 31.3 10.5 23 14.3 SSE 19 32 10 17 1009.0 1006.8 0.0
21/11:30am 33.5 30.8 10.2 24 13.6 SE 15 30 8 16 1009.5 1007.4 0.0
21/11:00am 32.2 29.1 10.3 26 12.8 SSE 17 26 9 14 1009.8 1007.7 0.0
21/10:30am 31.9 28.9 10.6 27 12.4 SSE 17 32 9 17 1010.3 1008.2 0.0
21/10:00am 30.6 27.6 10.5 29 11.7 SE 17 28 9 15 1010.5 1008.4 0.0
21/09:30am 29.4 25.2 11.0 32 10.7 SE 24 32 13 17 1010.9 1008.8 0.0
21/09:00am 28.4 23.8 11.0 34 10.1 SE 26 35 14 19 1011.2 1009.1 0.0
21/08:30am 26.5 21.6 11.4 39 8.7 SE 28 35 15 19 1011.6 1009.4 0.0
21/08:00am 25.5 20.7 11.7 42 8.0 SE 28 37 15 20 1011.7 1009.6 0.0
21/07:30am 23.8 18.3 11.8 47 6.9 SSE 32 41 17 22 1011.8 1009.7 0.0
21/07:00am 22.7 18.0 12.0 50 6.1 SE 28 37 15 20 1011.8 1009.7 0.0
21/06:30am 21.8 18.2 11.8 53 5.7 SE 22 30 12 16 1011.6 1009.4 0.0
21/06:00am 21.2 18.8 11.5 54 5.5 SSE 15 19 8 10 1011.3 1009.2 0.0
21/05:30am 19.7 18.2 10.4 55 5.1 SSW 9 13 5 7 1010.9 1008.8 0.0
21/05:00am 21.0 18.8 10.8 52 5.7 SSE 13 20 7 11 1010.3 1008.2 0.0
21/04:30am 21.4 18.1 10.9 51 5.9 SSE 19 24 10 13 1009.8 1007.7 0.0
21/04:00am 21.6 18.3 11.0 51 6.0 SE 19 26 10 14 1009.4 1007.3 0.0
21/03:30am 21.9 18.5 10.7 49 6.3 SE 19 24 10 13 1009.3 1007.2 0.0
21/03:00am 22.3 19.0 10.8 48 6.5 SSE 19 24 10 13 1009.3 1007.2 0.0
21/02:30am 22.6 19.2 10.7 47 6.7 SE 19 26 10 14 1009.2 1007.1 0.0
21/02:00am 23.0 19.5 10.8 46 6.9 SE 20 30 11 16 1009.4 1007.3 0.0
21/01:30am 23.5 19.2 10.9 45 7.1 SE 24 32 13 17 1009.6 1007.5 0.0
21/01:00am 23.9 19.2 10.6 43 7.5 SE 26 35 14 19 1009.7 1007.6 0.0
21/12:30am 24.5 18.7 10.8 42 7.8 SE 32 41 17 22 1009.8 1007.7 0.0
21/12:00am 25.1 19.2 10.6 40 8.2 SE 32 41 17 22 1010.0 1007.9 0.0
 
Date/Time
WST
Temp
°C
App
Temp
°C
Dew
Point
°C
Rel
Hum
%
Delta-T
°C
Wind Press
QNH
hPa
Press
MSL
hPa
Rain since
9am
mm
Dir  Spd
km/h
Gust
km/h
Spd
kts
Gust
kts
20/11:30pm 25.9 20.4 10.5 38 8.7 SE 30 39 16 21 1010.1 1008.0 0.0

Other formats

Comma delimited format used in spreadsheet applications
http://www.bom.gov.au/fwo/IDW60801/IDW60801.95634.axf

JavaScript Object Notation format (JSON) in row-major order
http://www.bom.gov.au/fwo/IDW60801/IDW60801.95634.json

Data quality

Most of these data are generated automatically and are frequently updated. Quality checks on data are not normally performed. It is possible for incorrect values to appear. Refer to information at About Latest Weather Observations and please check the disclaimer before using these data.